• Join FlightAware (Why Join?)
  • Login
  • US Flag 
Trick or treat! (Boo!!) 
11:22PM EDT


 

Airport Tracker/Info


-or-


 

Live Flight TrackerFlight Track Log ✈ UPS2506 ✈ 19-Dec-2013 ✈ KBFI - KPDX

Flight Track Log - Related Links

Times and Time Zones

All times are in EST time to prevent confusion due to time zone crossing. See the UPS2506 flight status page for this flight to view local times or setup timezone preferences in your user account.

Time Position Orientation Groundspeed Altitude Reporting Facility
EST Latitude Longitude Course Direction KTS MPH feet Rate Location/Type
09:28PM 47.5114 -122.2860 148° Southeast 176 203 1,200  Level FlightAware ADS-B
09:28PM 47.5033 -122.2790 150° Southeast 186 214 1,400 1,740 Climbing FlightAware ADS-B
09:28PM 47.4917 -122.2680 147° Southeast 204 235 2,000 3,000 Climbing FlightAware ADS-B
09:28PM 47.4790 -122.2560 147° Southeast 212 244 2,900 3,240 Climbing FlightAware ADS-B
09:29PM 47.4655 -122.2450 151° Southeast 228 262 3,700 3,240 Climbing FlightAware ADS-B
09:29PM 47.4576 -122.2380 149° Southeast 237 273 4,200 3,480 Climbing FlightAware ADS-B
09:29PM 47.4537 -122.2350 153° Southeast 241 277 4,400 2,520 Climbing FlightAware ADS-B
09:29PM 47.4502 -122.2330 159° South 246 283 4,500 2,520 Climbing FlightAware ADS-B
09:29PM 47.4465 -122.2310 160° South 248 285 4,700 3,420 Climbing FlightAware ADS-B
09:29PM 47.4428 -122.2300 170° South 250 288 4,900 3,720 Climbing FlightAware ADS-B
09:29PM 47.4373 -122.2290 173° South 252 290 5,200 3,720 Climbing FlightAware ADS-B
09:29PM 47.4241 -122.2280 177° South 257 296 5,900 3,780 Climbing FlightAware ADS-B
09:29PM 47.4142 -122.2280 180° South 261 300 6,400 3,600 Climbing FlightAware ADS-B
09:30PM 47.3957 -122.2300 184° South 266 306 7,300 3,600 Climbing FlightAware ADS-B
09:30PM 47.3770 -122.2320 184° South 273 314 8,200 3,600 Climbing FlightAware ADS-B
09:30PM 47.3607 -122.2350 187° South 278 320 9,000 3,600 Climbing FlightAware ADS-B
09:30PM 47.3413 -122.2370 184° South 284 327 9,900 3,360 Climbing FlightAware ADS-B
09:31PM 47.3074 -122.2430 187° South 297 342 11,300 2,880 Climbing FlightAware ADS-B
09:31PM 47.2633 -122.2510 187° South 338 389 12,600 2,280 Climbing FlightAware ADS-B
09:32PM 47.2121 -122.2610 188° South 387 445 13,600 1,860 Climbing FlightAware ADS-B
09:32PM 47.1549 -122.2720 187° South 431 496 14,500 2,100 Climbing FlightAware ADS-B
09:33PM 47.0936 -122.2830 187° South 458 527 15,700 2,700 Climbing FlightAware ADS-B
09:33PM 47.0279 -122.2960 188° South 469 540 17,300 3,000 Climbing FlightAware ADS-B
09:34PM 46.9603 -122.3060 186° South 486 559 18,800 2,520 Climbing FlightAware ADS-B
09:34PM 46.9007 -122.3100 183° South 510 587 19,700 1,260 Climbing FlightAware ADS-B
09:35PM 46.8277 -122.3100 180° South 527 606 20,000 300 Climbing FlightAware ADS-B
09:35PM 46.7534 -122.3090 179° South 522 601 20,000  Level FlightAware ADS-B
09:36PM 46.6808 -122.3090 180° South 517 595 20,000  Level FlightAware ADS-B
09:36PM 46.6085 -122.3090 180° South 517 595 20,000 -300 Level FlightAware ADS-B
09:37PM 46.5353 -122.3090 180° South 518 596 19,700 -1,920 Descending FlightAware ADS-B
09:37PM 46.4635 -122.3090 180° South 509 586 18,100 -2,700 Descending FlightAware ADS-B
09:38PM 46.3943 -122.3080 179° South 480 552 17,000 -2,400 Descending FlightAware ADS-B
09:38PM 46.3285 -122.3080 180° South 461 531 15,700 -2,820 Descending FlightAware ADS-B
09:39PM 46.3006 -122.3080 180° South 455 524 15,000 -3,240 Descending FlightAware ADS-B
09:39PM 46.2652 -122.3130 186° South 448 516 14,100 -3,240 Descending FlightAware ADS-B
09:39PM 46.2422 -122.3200 192° South 443 510 13,500 -3,120 Descending FlightAware ADS-B
09:39PM 46.2160 -122.3320 198° South 434 499 12,800 -2,700 Descending FlightAware ADS-B
09:40PM 46.1367 -122.3760 201° Southwest 408 470 10,900 -1,680 Descending FlightAware ADS-B
09:40PM 46.0841 -122.4060 202° Southwest 387 445 10,700 -300 Descending FlightAware ADS-B
09:41PM 46.0331 -122.4350 202° Southwest 384 442 10,600 -960 Descending FlightAware ADS-B
09:41PM 45.9999 -122.4520 200° South 369 425 9,900 -1,320 Descending FlightAware ADS-B
09:42PM 45.9758 -122.4640 199° South 345 397 9,800 -600 Descending FlightAware ADS-B
09:42PM 45.9543 -122.4750 200° South 307 353 9,600 -1,860 Descending FlightAware ADS-B
09:43PM 45.8778 -122.5592 200° South 282 325 7,100 -1,980 Descending Seattle Center
09:44PM 45.8492 -122.5953 221° Southwest 254 292 6,100 -1,320 Descending Seattle Center
09:44PM 45.8292 -122.6325 232° Southwest 256 295 5,800 -1,200 Descending Seattle Center
09:45PM 45.8056 -122.6689 227° Southwest 231 266 4,900 -1,320 Descending Seattle Center
09:45PM 45.7889 -122.7000 232° Southwest 225 259 4,500 -1,080 Descending Seattle Center
09:46PM 45.7614 -122.7519 233° Southwest 206 237 3,600 -900 Descending Seattle Center
09:46PM 45.7542 -122.7661 234° Southwest 210 242 3,600 -480 Level Seattle Center
09:47PM 45.7194 -122.7908 206° Southwest 205 236 3,200 -720 Descending Seattle Center
09:47PM 45.7019 -122.7947 189° South 203 234 2,900 -780 Descending Seattle Center
09:48PM 45.6733 -122.7878 170° South 179 206 2,500 -300 Descending Seattle Center
09:48PM 45.6553 -122.7736 151° Southeast 169 194 2,600 -360 Climbing Seattle Center
09:49PM 45.6431 -122.7444 121° Southeast 136 157 2,100 -720 Descending Seattle Center
09:49PM 45.6364 -122.7281 120° Southeast 136 157 1,900 -900 Descending Seattle Center
09:50PM 45.6297 -122.7100 118° Southeast 119 137 1,400 -720 Descending Seattle Center
09:50PM 45.6197 -122.6853 120° Southeast 125 144 1,200 -600 Descending Seattle Center
09:51PM 45.6125 -122.6675 120° Southeast 120 138 800 -720 Descending Seattle Center
09:51PM 45.6036 -122.6439 118° Southeast 120 138 500 -720 Descending Seattle Center
09:52PM 45.5953 -122.6250 122° Southeast 116 133 100 -420 Descending Seattle Center
09:52PM 45.5869 -122.6028 118° Southeast 117 135 100  Level Seattle Center